Terminal Aerodrome Forecast
Issued by NWS Sioux Falls, SD

Home | Current Version | Previous Version | Graphics & Text | Print | Product List | Glossary Off
Versions: 1 2 3 4 5 6 7 8 9 10 11 12 13 14 15 16 17 18 19 20 21 22 23 24 25 26

000
FTUS43 KFSD 221125
TAFSUX
TAF
KSUX 221125Z 2212/2312 15010KT P6SM SCT070
     FM221500 16017G25KT P6SM FEW060 BKN180
     FM222200 19012KT 4SM -RA BKN015 OVC040
     FM230300 23005KT P6SM BKN008
     FM230600 27004KT P6SM SKC=

USA.gov is the U.S. government's official web portal to all federal, state and local government web resources and services.